sensor_id;sensor_type;location;lat;lon;timestamp;temperature;humidity
59857;DHT22;45733;52.668;6.860;2023-04-24T00:00:40;10.30;99.90
59857;DHT22;45733;52.668;6.860;2023-04-24T00:03:06;10.20;99.90
59857;DHT22;45733;52.668;6.860;2023-04-24T00:05:32;10.20;99.90
59857;DHT22;45733;52.668;6.860;2023-04-24T00:07:58;10.10;99.90
59857;DHT22;45733;52.668;6.860;2023-04-24T00:10:23;10.10;99.90
59857;DHT22;45733;52.668;6.860;2023-04-24T00:12:49;10.00;99.90
59857;DHT22;45733;52.668;6.860;2023-04-24T00:15:15;10.10;99.90
59857;DHT22;45733;52.668;6.860;2023-04-24T00:17:40;10.00;99.90
59857;DHT22;45733;52.668;6.860;2023-04-24T00:20:06;10.00;99.90
59857;DHT22;45733;52.668;6.860;2023-04-24T00:22:32;10.00;99.90
59857;DHT22;45733;52.668;6.860;2023-04-24T00:24:57;9.90;99.90
59857;DHT22;45733;52.668;6.860;2023-04-24T00:27:23;9.90;99.90
59857;DHT22;45733;52.668;6.860;2023-04-24T00:29:48;9.90;99.90
59857;DHT22;45733;52.668;6.860;2023-04-24T00:32:14;9.90;99.90
59857;DHT22;45733;52.668;6.860;2023-04-24T00:34:40;9.90;99.90
59857;DHT22;45733;52.668;6.860;2023-04-24T00:37:06;9.90;99.90
59857;DHT22;45733;52.668;6.860;2023-04-24T00:39:31;9.90;99.90
59857;DHT22;45733;52.668;6.860;2023-04-24T00:41:57;9.90;99.90
59857;DHT22;45733;52.668;6.860;2023-04-24T00:44:23;9.90;99.90
59857;DHT22;45733;52.668;6.860;2023-04-24T00:46:49;9.90;99.90
59857;DHT22;45733;52.668;6.860;2023-04-24T00:49:21;9.80;99.90
59857;DHT22;45733;52.668;6.860;2023-04-24T00:51:47;9.80;99.90
59857;DHT22;45733;52.668;6.860;2023-04-24T00:54:13;9.70;99.90
59857;DHT22;45733;52.668;6.860;2023-04-24T00:56:39;9.90;99.90
59857;DHT22;45733;52.668;6.860;2023-04-24T00:59:05;9.80;99.90
59857;DHT22;45733;52.668;6.860;2023-04-24T01:01:31;9.80;99.90
59857;DHT22;45733;52.668;6.860;2023-04-24T01:03:58;9.80;99.90
59857;DHT22;45733;52.668;6.860;2023-04-24T01:06:25;9.80;99.90
59857;DHT22;45733;52.668;6.860;2023-04-24T01:08:52;9.80;99.90
59857;DHT22;45733;52.668;6.860;2023-04-24T01:11:18;9.70;99.90
59857;DHT22;45733;52.668;6.860;2023-04-24T01:13:43;9.70;99.90
59857;DHT22;45733;52.668;6.860;2023-04-24T01:16:10;9.70;99.90
59857;DHT22;45733;52.668;6.860;2023-04-24T01:18:35;9.80;99.90
59857;DHT22;45733;52.668;6.860;2023-04-24T01:21:02;9.70;99.90
59857;DHT22;45733;52.668;6.860;2023-04-24T01:23:29;9.80;99.90
59857;DHT22;45733;52.668;6.860;2023-04-24T01:25:54;9.80;99.90
59857;DHT22;45733;52.668;6.860;2023-04-24T01:28:20;9.70;99.90
59857;DHT22;45733;52.668;6.860;2023-04-24T01:30:46;9.80;99.90
59857;DHT22;45733;52.668;6.860;2023-04-24T01:33:11;9.70;99.90
59857;DHT22;45733;52.668;6.860;2023-04-24T01:35:37;9.80;99.90
59857;DHT22;45733;52.668;6.860;2023-04-24T01:38:03;9.70;99.90
59857;DHT22;45733;52.668;6.860;2023-04-24T01:40:29;9.70;99.90
59857;DHT22;45733;52.668;6.860;2023-04-24T01:42:54;9.80;99.90
59857;DHT22;45733;52.668;6.860;2023-04-24T01:45:20;9.80;99.90
59857;DHT22;45733;52.668;6.860;2023-04-24T01:47:46;9.80;99.90
59857;DHT22;45733;52.668;6.860;2023-04-24T01:50:12;9.80;99.90
59857;DHT22;45733;52.668;6.860;2023-04-24T01:52:37;9.80;99.90
59857;DHT22;45733;52.668;6.860;2023-04-24T01:55:03;9.80;99.90
59857;DHT22;45733;52.668;6.860;2023-04-24T01:57:30;9.90;99.90
59857;DHT22;45733;52.668;6.860;2023-04-24T01:59:55;9.80;99.90
59857;DHT22;45733;52.668;6.860;2023-04-24T02:02:21;9.90;99.90
59857;DHT22;45733;52.668;6.860;2023-04-24T02:04:52;9.90;99.90
59857;DHT22;45733;52.668;6.860;2023-04-24T02:07:17;9.80;99.90
59857;DHT22;45733;52.668;6.860;2023-04-24T02:09:43;9.90;99.90
59857;DHT22;45733;52.668;6.860;2023-04-24T02:12:08;10.00;99.90
59857;DHT22;45733;52.668;6.860;2023-04-24T02:14:34;9.90;99.90
59857;DHT22;45733;52.668;6.860;2023-04-24T02:17:00;9.90;99.90
59857;DHT22;45733;52.668;6.860;2023-04-24T02:19:26;9.90;99.90
59857;DHT22;45733;52.668;6.860;2023-04-24T02:21:51;9.90;99.90
59857;DHT22;45733;52.668;6.860;2023-04-24T02:24:17;9.90;99.90
59857;DHT22;45733;52.668;6.860;2023-04-24T02:26:42;9.90;99.90
59857;DHT22;45733;52.668;6.860;2023-04-24T02:29:08;9.90;99.90
59857;DHT22;45733;52.668;6.860;2023-04-24T02:31:33;9.90;99.90
59857;DHT22;45733;52.668;6.860;2023-04-24T02:33:59;9.90;99.90
59857;DHT22;45733;52.668;6.860;2023-04-24T02:36:24;9.90;99.90
59857;DHT22;45733;52.668;6.860;2023-04-24T02:38:50;9.80;99.90
59857;DHT22;45733;52.668;6.860;2023-04-24T02:41:16;9.90;99.90
59857;DHT22;45733;52.668;6.860;2023-04-24T02:43:41;9.90;99.90
59857;DHT22;45733;52.668;6.860;2023-04-24T02:46:07;9.80;99.90
59857;DHT22;45733;52.668;6.860;2023-04-24T02:48:32;9.80;99.90
59857;DHT22;45733;52.668;6.860;2023-04-24T02:50:58;9.80;99.90
59857;DHT22;45733;52.668;6.860;2023-04-24T02:53:24;9.80;99.90
59857;DHT22;45733;52.668;6.860;2023-04-24T02:55:49;9.80;99.90
59857;DHT22;45733;52.668;6.860;2023-04-24T02:58:15;9.80;99.90
59857;DHT22;45733;52.668;6.860;2023-04-24T03:00:41;9.80;99.90
59857;DHT22;45733;52.668;6.860;2023-04-24T03:03:06;9.80;99.90
59857;DHT22;45733;52.668;6.860;2023-04-24T03:05:32;9.80;99.90
59857;DHT22;45733;52.668;6.860;2023-04-24T03:07:57;9.80;99.90
59857;DHT22;45733;52.668;6.860;2023-04-24T03:10:23;9.80;99.90
59857;DHT22;45733;52.668;6.860;2023-04-24T03:12:49;9.80;99.90
59857;DHT22;45733;52.668;6.860;2023-04-24T03:15:15;9.80;99.90
59857;DHT22;45733;52.668;6.860;2023-04-24T03:17:41;9.80;99.90
59857;DHT22;45733;52.668;6.860;2023-04-24T03:20:06;9.70;99.90
59857;DHT22;45733;52.668;6.860;2023-04-24T03:22:33;9.70;99.90
59857;DHT22;45733;52.668;6.860;2023-04-24T03:24:59;9.70;99.90
59857;DHT22;45733;52.668;6.860;2023-04-24T03:27:25;9.70;99.90
59857;DHT22;45733;52.668;6.860;2023-04-24T03:29:50;9.70;99.90
59857;DHT22;45733;52.668;6.860;2023-04-24T03:32:23;9.70;99.90
59857;DHT22;45733;52.668;6.860;2023-04-24T03:34:49;9.70;99.90
59857;DHT22;45733;52.668;6.860;2023-04-24T03:37:18;9.70;99.90
59857;DHT22;45733;52.668;6.860;2023-04-24T03:39:43;9.60;99.90
59857;DHT22;45733;52.668;6.860;2023-04-24T03:42:09;9.60;99.90
59857;DHT22;45733;52.668;6.860;2023-04-24T03:44:35;9.60;99.90
59857;DHT22;45733;52.668;6.860;2023-04-24T03:47:00;9.60;99.90
59857;DHT22;45733;52.668;6.860;2023-04-24T03:49:26;9.60;99.90
59857;DHT22;45733;52.668;6.860;2023-04-24T03:51:52;9.60;99.90
59857;DHT22;45733;52.668;6.860;2023-04-24T03:54:18;9.60;99.90
59857;DHT22;45733;52.668;6.860;2023-04-24T03:56:43;9.60;99.90
59857;DHT22;45733;52.668;6.860;2023-04-24T03:59:09;9.60;99.90
59857;DHT22;45733;52.668;6.860;2023-04-24T04:01:35;9.50;99.90
59857;DHT22;45733;52.668;6.860;2023-04-24T04:04:05;9.50;99.90
59857;DHT22;45733;52.668;6.860;2023-04-24T04:06:31;9.50;99.90
59857;DHT22;45733;52.668;6.860;2023-04-24T04:08:56;9.50;99.90
59857;DHT22;45733;52.668;6.860;2023-04-24T04:11:22;9.60;99.90
59857;DHT22;45733;52.668;6.860;2023-04-24T04:13:48;9.60;99.90
59857;DHT22;45733;52.668;6.860;2023-04-24T04:16:13;9.50;99.90
59857;DHT22;45733;52.668;6.860;2023-04-24T04:18:39;9.50;99.90
59857;DHT22;45733;52.668;6.860;2023-04-24T04:21:05;9.50;99.90
59857;DHT22;45733;52.668;6.860;2023-04-24T04:23:30;9.60;99.90
59857;DHT22;45733;52.668;6.860;2023-04-24T04:25:57;9.60;99.90
59857;DHT22;45733;52.668;6.860;2023-04-24T04:28:23;9.50;99.90
59857;DHT22;45733;52.668;6.860;2023-04-24T04:30:50;9.60;99.90
59857;DHT22;45733;52.668;6.860;2023-04-24T04:33:19;9.60;99.90
59857;DHT22;45733;52.668;6.860;2023-04-24T04:35:45;9.60;99.90
59857;DHT22;45733;52.668;6.860;2023-04-24T04:38:14;9.60;99.90
59857;DHT22;45733;52.668;6.860;2023-04-24T04:40:40;9.60;99.90
59857;DHT22;45733;52.668;6.860;2023-04-24T04:43:06;9.60;99.90
59857;DHT22;45733;52.668;6.860;2023-04-24T04:45:31;9.70;99.90
59857;DHT22;45733;52.668;6.860;2023-04-24T04:47:58;9.70;99.90
59857;DHT22;45733;52.668;6.860;2023-04-24T04:50:26;9.70;99.90
59857;DHT22;45733;52.668;6.860;2023-04-24T04:52:52;9.70;99.90
59857;DHT22;45733;52.668;6.860;2023-04-24T04:55:17;9.60;99.90
59857;DHT22;45733;52.668;6.860;2023-04-24T04:57:45;9.70;99.90
59857;DHT22;45733;52.668;6.860;2023-04-24T05:00:11;9.70;99.90
59857;DHT22;45733;52.668;6.860;2023-04-24T05:02:37;9.70;99.90
59857;DHT22;45733;52.668;6.860;2023-04-24T05:05:02;9.80;99.90
59857;DHT22;45733;52.668;6.860;2023-04-24T05:07:28;9.70;99.90
59857;DHT22;45733;52.668;6.860;2023-04-24T05:09:54;9.80;99.90
59857;DHT22;45733;52.668;6.860;2023-04-24T05:12:19;9.90;99.90
59857;DHT22;45733;52.668;6.860;2023-04-24T05:14:45;9.80;99.90
59857;DHT22;45733;52.668;6.860;2023-04-24T05:17:10;9.80;99.90
59857;DHT22;45733;52.668;6.860;2023-04-24T05:19:36;9.70;99.90
59857;DHT22;45733;52.668;6.860;2023-04-24T05:22:03;9.80;99.90
59857;DHT22;45733;52.668;6.860;2023-04-24T05:24:32;9.80;99.90
59857;DHT22;45733;52.668;6.860;2023-04-24T05:26:58;9.70;99.90
59857;DHT22;45733;52.668;6.860;2023-04-24T05:29:24;9.70;99.90
59857;DHT22;45733;52.668;6.860;2023-04-24T05:31:50;9.80;99.90
59857;DHT22;45733;52.668;6.860;2023-04-24T05:34:16;9.70;99.90
59857;DHT22;45733;52.668;6.860;2023-04-24T05:36:42;9.80;99.90
59857;DHT22;45733;52.668;6.860;2023-04-24T05:39:08;9.90;99.90
59857;DHT22;45733;52.668;6.860;2023-04-24T05:41:34;10.00;99.90
59857;DHT22;45733;52.668;6.860;2023-04-24T05:43:59;9.90;99.90
59857;DHT22;45733;52.668;6.860;2023-04-24T05:46:25;9.90;99.90
59857;DHT22;45733;52.668;6.860;2023-04-24T05:48:50;9.90;99.90
59857;DHT22;45733;52.668;6.860;2023-04-24T05:51:16;9.80;99.90
59857;DHT22;45733;52.668;6.860;2023-04-24T05:53:41;9.80;99.90
59857;DHT22;45733;52.668;6.860;2023-04-24T05:56:07;9.80;99.90
59857;DHT22;45733;52.668;6.860;2023-04-24T05:58:32;9.70;99.90
59857;DHT22;45733;52.668;6.860;2023-04-24T06:00:58;9.80;99.90
59857;DHT22;45733;52.668;6.860;2023-04-24T06:03:26;9.90;99.90
59857;DHT22;45733;52.668;6.860;2023-04-24T06:05:52;9.70;99.90
59857;DHT22;45733;52.668;6.860;2023-04-24T06:08:18;9.80;99.90
59857;DHT22;45733;52.668;6.860;2023-04-24T06:10:43;9.80;99.90
59857;DHT22;45733;52.668;6.860;2023-04-24T06:13:09;9.70;99.90
59857;DHT22;45733;52.668;6.860;2023-04-24T06:15:35;9.70;99.90
59857;DHT22;45733;52.668;6.860;2023-04-24T06:18:00;9.60;99.90
59857;DHT22;45733;52.668;6.860;2023-04-24T06:20:26;9.70;99.90
59857;DHT22;45733;52.668;6.860;2023-04-24T06:22:51;9.70;99.90
59857;DHT22;45733;52.668;6.860;2023-04-24T06:25:17;9.70;99.90
59857;DHT22;45733;52.668;6.860;2023-04-24T06:27:43;9.60;99.90
59857;DHT22;45733;52.668;6.860;2023-04-24T06:30:08;9.60;99.90
59857;DHT22;45733;52.668;6.860;2023-04-24T06:32:34;9.60;99.90
59857;DHT22;45733;52.668;6.860;2023-04-24T06:35:00;9.60;99.90
59857;DHT22;45733;52.668;6.860;2023-04-24T06:37:25;9.50;99.90
59857;DHT22;45733;52.668;6.860;2023-04-24T06:39:51;9.50;99.90
59857;DHT22;45733;52.668;6.860;2023-04-24T06:42:16;9.60;99.90
59857;DHT22;45733;52.668;6.860;2023-04-24T06:44:42;9.70;99.90
59857;DHT22;45733;52.668;6.860;2023-04-24T06:47:08;9.70;99.90
59857;DHT22;45733;52.668;6.860;2023-04-24T06:49:37;9.70;99.90
59857;DHT22;45733;52.668;6.860;2023-04-24T06:52:03;9.70;99.90
59857;DHT22;45733;52.668;6.860;2023-04-24T06:54:28;9.60;99.90
59857;DHT22;45733;52.668;6.860;2023-04-24T06:56:54;9.60;99.90
59857;DHT22;45733;52.668;6.860;2023-04-24T06:59:20;9.60;99.90
59857;DHT22;45733;52.668;6.860;2023-04-24T07:01:46;9.50;99.90
59857;DHT22;45733;52.668;6.860;2023-04-24T07:04:11;9.70;99.90
59857;DHT22;45733;52.668;6.860;2023-04-24T07:06:38;9.60;99.90
59857;DHT22;45733;52.668;6.860;2023-04-24T07:09:04;9.50;99.90
59857;DHT22;45733;52.668;6.860;2023-04-24T07:11:30;9.50;99.90
59857;DHT22;45733;52.668;6.860;2023-04-24T07:13:55;9.50;99.90
59857;DHT22;45733;52.668;6.860;2023-04-24T07:16:21;9.50;99.90
59857;DHT22;45733;52.668;6.860;2023-04-24T07:18:47;9.50;99.90
59857;DHT22;45733;52.668;6.860;2023-04-24T07:21:12;9.40;99.90
59857;DHT22;45733;52.668;6.860;2023-04-24T07:23:38;9.50;99.90
59857;DHT22;45733;52.668;6.860;2023-04-24T07:26:03;9.40;99.90
59857;DHT22;45733;52.668;6.860;2023-04-24T07:28:29;9.30;99.90
59857;DHT22;45733;52.668;6.860;2023-04-24T07:30:57;9.50;99.90
59857;DHT22;45733;52.668;6.860;2023-04-24T07:33:24;9.50;99.90
59857;DHT22;45733;52.668;6.860;2023-04-24T07:35:49;9.50;99.90
59857;DHT22;45733;52.668;6.860;2023-04-24T07:38:15;9.50;99.90
59857;DHT22;45733;52.668;6.860;2023-04-24T07:40:40;9.50;99.90
59857;DHT22;45733;52.668;6.860;2023-04-24T07:43:06;9.50;99.90
59857;DHT22;45733;52.668;6.860;2023-04-24T07:45:31;9.50;99.90
59857;DHT22;45733;52.668;6.860;2023-04-24T07:48:01;9.60;99.90
59857;DHT22;45733;52.668;6.860;2023-04-24T07:50:26;9.40;99.90
59857;DHT22;45733;52.668;6.860;2023-04-24T07:52:52;9.50;99.90
59857;DHT22;45733;52.668;6.860;2023-04-24T07:55:17;9.40;99.90
59857;DHT22;45733;52.668;6.860;2023-04-24T07:57:43;9.60;99.90
59857;DHT22;45733;52.668;6.860;2023-04-24T08:00:09;9.60;99.90
59857;DHT22;45733;52.668;6.860;2023-04-24T08:02:35;9.50;99.90
59857;DHT22;45733;52.668;6.860;2023-04-24T08:05:00;9.70;99.90
59857;DHT22;45733;52.668;6.860;2023-04-24T08:07:26;9.70;99.90
59857;DHT22;45733;52.668;6.860;2023-04-24T08:09:52;9.90;99.90
59857;DHT22;45733;52.668;6.860;2023-04-24T08:12:17;9.80;99.90
59857;DHT22;45733;52.668;6.860;2023-04-24T08:14:43;9.90;99.90
59857;DHT22;45733;52.668;6.860;2023-04-24T08:17:08;10.10;99.90
59857;DHT22;45733;52.668;6.860;2023-04-24T08:19:34;10.00;99.90
59857;DHT22;45733;52.668;6.860;2023-04-24T08:21:59;10.20;99.90
59857;DHT22;45733;52.668;6.860;2023-04-24T08:24:25;10.10;99.90
59857;DHT22;45733;52.668;6.860;2023-04-24T08:26:50;10.10;99.90
59857;DHT22;45733;52.668;6.860;2023-04-24T08:29:16;10.20;99.90
59857;DHT22;45733;52.668;6.860;2023-04-24T08:31:42;10.30;99.90
59857;DHT22;45733;52.668;6.860;2023-04-24T08:34:08;10.30;99.90
59857;DHT22;45733;52.668;6.860;2023-04-24T08:36:34;10.20;99.90
59857;DHT22;45733;52.668;6.860;2023-04-24T08:39:00;10.30;99.90
59857;DHT22;45733;52.668;6.860;2023-04-24T08:41:26;10.20;99.90
59857;DHT22;45733;52.668;6.860;2023-04-24T08:43:52;10.30;99.90
59857;DHT22;45733;52.668;6.860;2023-04-24T08:46:18;10.30;99.90
59857;DHT22;45733;52.668;6.860;2023-04-24T08:48:44;10.30;99.90
59857;DHT22;45733;52.668;6.860;2023-04-24T08:51:10;10.40;99.90
59857;DHT22;45733;52.668;6.860;2023-04-24T08:53:36;10.40;99.90
59857;DHT22;45733;52.668;6.860;2023-04-24T08:56:02;10.50;99.90
59857;DHT22;45733;52.668;6.860;2023-04-24T08:58:28;10.50;99.90
59857;DHT22;45733;52.668;6.860;2023-04-24T09:00:54;10.60;99.90
59857;DHT22;45733;52.668;6.860;2023-04-24T09:03:20;10.50;99.90
59857;DHT22;45733;52.668;6.860;2023-04-24T09:05:46;10.60;99.90
59857;DHT22;45733;52.668;6.860;2023-04-24T09:08:13;10.50;99.90
59857;DHT22;45733;52.668;6.860;2023-04-24T09:10:39;10.40;99.90
59857;DHT22;45733;52.668;6.860;2023-04-24T09:13:04;10.60;99.90
59857;DHT22;45733;52.668;6.860;2023-04-24T09:15:31;10.40;99.90
59857;DHT22;45733;52.668;6.860;2023-04-24T09:17:57;10.50;99.90
59857;DHT22;45733;52.668;6.860;2023-04-24T09:20:23;10.50;99.90
59857;DHT22;45733;52.668;6.860;2023-04-24T09:22:48;10.60;99.90
59857;DHT22;45733;52.668;6.860;2023-04-24T09:25:18;10.40;99.90
59857;DHT22;45733;52.668;6.860;2023-04-24T09:27:44;10.30;99.90
59857;DHT22;45733;52.668;6.860;2023-04-24T09:30:10;10.40;99.90
59857;DHT22;45733;52.668;6.860;2023-04-24T09:32:36;10.30;99.90
59857;DHT22;45733;52.668;6.860;2023-04-24T09:35:09;10.30;99.90
59857;DHT22;45733;52.668;6.860;2023-04-24T09:37:35;10.20;99.90
59857;DHT22;45733;52.668;6.860;2023-04-24T09:40:08;10.10;99.90
59857;DHT22;45733;52.668;6.860;2023-04-24T09:42:33;10.10;99.90
59857;DHT22;45733;52.668;6.860;2023-04-24T09:44:59;10.00;99.90
59857;DHT22;45733;52.668;6.860;2023-04-24T09:47:25;10.20;99.90
59857;DHT22;45733;52.668;6.860;2023-04-24T09:49:50;10.20;99.90
59857;DHT22;45733;52.668;6.860;2023-04-24T09:52:22;10.10;99.90
59857;DHT22;45733;52.668;6.860;2023-04-24T09:54:53;10.20;99.90
59857;DHT22;45733;52.668;6.860;2023-04-24T09:57:19;10.00;99.90
59857;DHT22;45733;52.668;6.860;2023-04-24T09:59:45;10.10;99.90
59857;DHT22;45733;52.668;6.860;2023-04-24T10:02:17;10.10;99.90
59857;DHT22;45733;52.668;6.860;2023-04-24T10:04:53;10.10;99.90
59857;DHT22;45733;52.668;6.860;2023-04-24T10:07:20;10.10;99.90
59857;DHT22;45733;52.668;6.860;2023-04-24T10:09:45;10.20;99.90
59857;DHT22;45733;52.668;6.860;2023-04-24T10:12:11;10.10;99.90
59857;DHT22;45733;52.668;6.860;2023-04-24T10:14:38;10.10;99.90
59857;DHT22;45733;52.668;6.860;2023-04-24T10:17:04;10.10;99.90
59857;DHT22;45733;52.668;6.860;2023-04-24T10:19:30;9.90;99.90
59857;DHT22;45733;52.668;6.860;2023-04-24T10:21:56;9.80;99.90
59857;DHT22;45733;52.668;6.860;2023-04-24T10:24:22;9.90;99.90
59857;DHT22;45733;52.668;6.860;2023-04-24T10:26:48;9.90;99.90
59857;DHT22;45733;52.668;6.860;2023-04-24T10:29:14;9.80;99.90
59857;DHT22;45733;52.668;6.860;2023-04-24T10:31:40;9.90;99.90
59857;DHT22;45733;52.668;6.860;2023-04-24T10:34:07;10.00;99.90
59857;DHT22;45733;52.668;6.860;2023-04-24T10:36:33;10.00;99.90
59857;DHT22;45733;52.668;6.860;2023-04-24T10:39:03;10.10;99.90
59857;DHT22;45733;52.668;6.860;2023-04-24T10:41:32;10.10;99.90
59857;DHT22;45733;52.668;6.860;2023-04-24T10:44:07;10.20;99.90
59857;DHT22;45733;52.668;6.860;2023-04-24T10:46:33;10.20;99.90
59857;DHT22;45733;52.668;6.860;2023-04-24T10:48:59;10.10;99.90
59857;DHT22;45733;52.668;6.860;2023-04-24T10:51:43;10.10;99.90
59857;DHT22;45733;52.668;6.860;2023-04-24T10:56:51;9.90;99.90
59857;DHT22;45733;52.668;6.860;2023-04-24T10:59:26;9.90;99.90
59857;DHT22;45733;52.668;6.860;2023-04-24T11:01:53;9.60;99.90
59857;DHT22;45733;52.668;6.860;2023-04-24T11:04:28;9.40;99.90
59857;DHT22;45733;52.668;6.860;2023-04-24T11:06:54;9.40;99.90
59857;DHT22;45733;52.668;6.860;2023-04-24T11:09:26;9.30;99.90
59857;DHT22;45733;52.668;6.860;2023-04-24T11:11:53;9.30;99.90
59857;DHT22;45733;52.668;6.860;2023-04-24T11:14:27;9.30;99.90
59857;DHT22;45733;52.668;6.860;2023-04-24T11:16:53;9.30;99.90
59857;DHT22;45733;52.668;6.860;2023-04-24T11:19:21;9.40;99.90
59857;DHT22;45733;52.668;6.860;2023-04-24T11:24:24;9.40;99.90
59857;DHT22;45733;52.668;6.860;2023-04-24T11:26:54;9.50;99.90
59857;DHT22;45733;52.668;6.860;2023-04-24T11:29:20;9.50;99.90
59857;DHT22;45733;52.668;6.860;2023-04-24T11:31:47;9.70;99.90
59857;DHT22;45733;52.668;6.860;2023-04-24T11:34:15;9.70;99.90
59857;DHT22;45733;52.668;6.860;2023-04-24T11:36:45;9.80;99.90
59857;DHT22;45733;52.668;6.860;2023-04-24T11:39:11;9.90;99.90
59857;DHT22;45733;52.668;6.860;2023-04-24T11:41:37;10.00;99.90
59857;DHT22;45733;52.668;6.860;2023-04-24T11:44:03;10.20;99.90
59857;DHT22;45733;52.668;6.860;2023-04-24T11:46:29;10.30;99.90
59857;DHT22;45733;52.668;6.860;2023-04-24T11:48:55;10.30;99.90
59857;DHT22;45733;52.668;6.860;2023-04-24T11:51:22;10.50;99.90
59857;DHT22;45733;52.668;6.860;2023-04-24T11:53:48;10.50;99.90
59857;DHT22;45733;52.668;6.860;2023-04-24T11:56:17;10.50;99.90
59857;DHT22;45733;52.668;6.860;2023-04-24T11:58:42;10.50;99.90
59857;DHT22;45733;52.668;6.860;2023-04-24T12:01:08;10.50;99.90
59857;DHT22;45733;52.668;6.860;2023-04-24T12:03:33;10.50;99.90
59857;DHT22;45733;52.668;6.860;2023-04-24T12:06:09;10.40;99.90
59857;DHT22;45733;52.668;6.860;2023-04-24T12:08:35;10.30;99.90
59857;DHT22;45733;52.668;6.860;2023-04-24T12:11:01;10.30;99.90
59857;DHT22;45733;52.668;6.860;2023-04-24T12:13:26;10.20;99.90
59857;DHT22;45733;52.668;6.860;2023-04-24T12:15:52;10.10;99.90
59857;DHT22;45733;52.668;6.860;2023-04-24T12:18:17;10.10;99.90
59857;DHT22;45733;52.668;6.860;2023-04-24T12:20:43;10.20;99.90
59857;DHT22;45733;52.668;6.860;2023-04-24T12:23:09;10.20;99.90
59857;DHT22;45733;52.668;6.860;2023-04-24T12:25:34;10.20;99.90
59857;DHT22;45733;52.668;6.860;2023-04-24T12:30:29;10.10;99.90
59857;DHT22;45733;52.668;6.860;2023-04-24T12:32:56;10.00;99.90
59857;DHT22;45733;52.668;6.860;2023-04-24T12:35:22;10.00;99.90
59857;DHT22;45733;52.668;6.860;2023-04-24T12:37:48;10.00;99.90
59857;DHT22;45733;52.668;6.860;2023-04-24T12:40:14;10.10;99.90
59857;DHT22;45733;52.668;6.860;2023-04-24T12:42:44;10.20;99.90
59857;DHT22;45733;52.668;6.860;2023-04-24T12:45:09;10.30;99.90
59857;DHT22;45733;52.668;6.860;2023-04-24T12:47:37;10.20;99.90
59857;DHT22;45733;52.668;6.860;2023-04-24T12:50:03;10.20;99.90
59857;DHT22;45733;52.668;6.860;2023-04-24T12:52:29;10.20;99.90
59857;DHT22;45733;52.668;6.860;2023-04-24T12:54:56;10.10;99.90
59857;DHT22;45733;52.668;6.860;2023-04-24T12:57:22;10.10;99.90
59857;DHT22;45733;52.668;6.860;2023-04-24T12:59:48;10.10;99.90
59857;DHT22;45733;52.668;6.860;2023-04-24T13:02:14;10.20;99.90
59857;DHT22;45733;52.668;6.860;2023-04-24T13:04:48;10.10;99.90
59857;DHT22;45733;52.668;6.860;2023-04-24T13:07:14;10.00;99.90
59857;DHT22;45733;52.668;6.860;2023-04-24T13:09:41;9.90;99.90
59857;DHT22;45733;52.668;6.860;2023-04-24T13:12:07;9.80;99.90
59857;DHT22;45733;52.668;6.860;2023-04-24T13:14:32;9.70;99.90
59857;DHT22;45733;52.668;6.860;2023-04-24T13:16:58;9.70;99.90
59857;DHT22;45733;52.668;6.860;2023-04-24T13:19:24;9.70;99.90
59857;DHT22;45733;52.668;6.860;2023-04-24T13:21:51;9.70;99.90
59857;DHT22;45733;52.668;6.860;2023-04-24T13:24:16;9.70;99.90
59857;DHT22;45733;52.668;6.860;2023-04-24T13:26:42;9.80;99.90
59857;DHT22;45733;52.668;6.860;2023-04-24T13:29:08;9.70;99.90
59857;DHT22;45733;52.668;6.860;2023-04-24T13:31:33;9.60;99.90
59857;DHT22;45733;52.668;6.860;2023-04-24T13:33:59;9.70;99.90
59857;DHT22;45733;52.668;6.860;2023-04-24T13:36:24;9.80;99.90
59857;DHT22;45733;52.668;6.860;2023-04-24T13:38:50;9.70;99.90
59857;DHT22;45733;52.668;6.860;2023-04-24T13:41:16;9.60;99.90
59857;DHT22;45733;52.668;6.860;2023-04-24T13:43:41;9.60;99.90
59857;DHT22;45733;52.668;6.860;2023-04-24T13:46:08;9.50;99.90
59857;DHT22;45733;52.668;6.860;2023-04-24T13:48:34;9.50;99.90
59857;DHT22;45733;52.668;6.860;2023-04-24T13:51:03;9.50;99.90
59857;DHT22;45733;52.668;6.860;2023-04-24T13:53:28;9.50;99.90
59857;DHT22;45733;52.668;6.860;2023-04-24T13:55:54;9.50;99.90
59857;DHT22;45733;52.668;6.860;2023-04-24T13:58:19;9.50;99.90
59857;DHT22;45733;52.668;6.860;2023-04-24T14:00:46;9.50;99.90
59857;DHT22;45733;52.668;6.860;2023-04-24T14:03:18;9.60;99.90
59857;DHT22;45733;52.668;6.860;2023-04-24T14:05:44;9.60;99.90
59857;DHT22;45733;52.668;6.860;2023-04-24T14:08:10;9.60;99.90
59857;DHT22;45733;52.668;6.860;2023-04-24T14:10:35;9.60;99.90
59857;DHT22;45733;52.668;6.860;2023-04-24T14:13:01;9.70;99.90
59857;DHT22;45733;52.668;6.860;2023-04-24T14:15:26;9.80;99.90
59857;DHT22;45733;52.668;6.860;2023-04-24T14:17:52;9.80;99.90
59857;DHT22;45733;52.668;6.860;2023-04-24T14:20:17;9.90;99.90
59857;DHT22;45733;52.668;6.860;2023-04-24T14:22:43;9.80;99.90
59857;DHT22;45733;52.668;6.860;2023-04-24T14:25:09;9.80;99.90
59857;DHT22;45733;52.668;6.860;2023-04-24T14:27:34;9.70;99.90
59857;DHT22;45733;52.668;6.860;2023-04-24T14:30:00;9.60;99.90
59857;DHT22;45733;52.668;6.860;2023-04-24T14:32:26;9.50;99.90
59857;DHT22;45733;52.668;6.860;2023-04-24T14:34:51;9.40;99.90
59857;DHT22;45733;52.668;6.860;2023-04-24T14:37:17;9.40;99.90
59857;DHT22;45733;52.668;6.860;2023-04-24T14:39:43;9.40;99.90
59857;DHT22;45733;52.668;6.860;2023-04-24T14:42:08;9.30;99.90
59857;DHT22;45733;52.668;6.860;2023-04-24T14:44:34;9.30;99.90
59857;DHT22;45733;52.668;6.860;2023-04-24T14:47:00;9.30;99.90
59857;DHT22;45733;52.668;6.860;2023-04-24T14:49:25;9.30;99.90
59857;DHT22;45733;52.668;6.860;2023-04-24T14:51:51;9.30;99.90
59857;DHT22;45733;52.668;6.860;2023-04-24T14:54:17;9.30;99.90
59857;DHT22;45733;52.668;6.860;2023-04-24T14:56:42;9.20;99.90
59857;DHT22;45733;52.668;6.860;2023-04-24T14:59:09;9.30;99.90
59857;DHT22;45733;52.668;6.860;2023-04-24T15:01:35;9.30;99.90
59857;DHT22;45733;52.668;6.860;2023-04-24T15:04:00;9.40;99.90
59857;DHT22;45733;52.668;6.860;2023-04-24T15:06:26;9.60;99.90
59857;DHT22;45733;52.668;6.860;2023-04-24T15:08:52;9.60;99.90
59857;DHT22;45733;52.668;6.860;2023-04-24T15:11:17;9.80;99.90
59857;DHT22;45733;52.668;6.860;2023-04-24T15:13:43;9.80;99.90
59857;DHT22;45733;52.668;6.860;2023-04-24T15:16:10;9.80;99.90
59857;DHT22;45733;52.668;6.860;2023-04-24T15:18:36;9.80;99.90
59857;DHT22;45733;52.668;6.860;2023-04-24T15:21:01;9.80;99.90
59857;DHT22;45733;52.668;6.860;2023-04-24T15:23:27;9.80;99.90
59857;DHT22;45733;52.668;6.860;2023-04-24T15:25:53;9.80;99.90
59857;DHT22;45733;52.668;6.860;2023-04-24T15:28:19;9.80;99.90
59857;DHT22;45733;52.668;6.860;2023-04-24T15:30:44;9.60;99.90
59857;DHT22;45733;52.668;6.860;2023-04-24T15:33:10;9.50;99.90
59857;DHT22;45733;52.668;6.860;2023-04-24T15:35:35;9.50;99.90
59857;DHT22;45733;52.668;6.860;2023-04-24T15:38:01;9.40;99.90
59857;DHT22;45733;52.668;6.860;2023-04-24T15:40:27;9.50;99.90
59857;DHT22;45733;52.668;6.860;2023-04-24T15:42:53;9.60;99.90